sensor_id;sensor_type;location;lat;lon;timestamp;pressure;altitude;pressure_sealevel;temperature;humidity
49825;BME280;35714;55.708;37.478;2023-02-22T00:00:38;98055.63;;;-10.77;48.65
49825;BME280;35714;55.708;37.478;2023-02-22T00:03:21;98072.03;;;-10.75;48.35
49825;BME280;35714;55.708;37.478;2023-02-22T00:05:54;98073.94;;;-10.87;48.28
49825;BME280;35714;55.708;37.478;2023-02-22T00:08:24;98078.16;;;-10.96;48.50
49825;BME280;35714;55.708;37.478;2023-02-22T00:10:50;98089.78;;;-10.89;48.53
49825;BME280;35714;55.708;37.478;2023-02-22T00:13:18;98090.91;;;-10.81;48.75
49825;BME280;35714;55.708;37.478;2023-02-22T00:15:44;98086.53;;;-10.71;48.66
49825;BME280;35714;55.708;37.478;2023-02-22T00:18:14;98096.75;;;-10.58;48.91
49825;BME280;35714;55.708;37.478;2023-02-22T00:20:40;98098.31;;;-10.46;48.56
49825;BME280;35714;55.708;37.478;2023-02-22T00:23:11;98102.31;;;-10.42;48.43
49825;BME280;35714;55.708;37.478;2023-02-22T00:25:37;98108.63;;;-10.54;48.12
49825;BME280;35714;55.708;37.478;2023-02-22T00:28:03;98112.72;;;-10.61;48.25
49825;BME280;35714;55.708;37.478;2023-02-22T00:30:30;98117.41;;;-10.65;48.81
49825;BME280;35714;55.708;37.478;2023-02-22T00:32:57;98118.81;;;-10.61;48.56
49825;BME280;35714;55.708;37.478;2023-02-22T00:35:25;98114.63;;;-10.73;48.20
49825;BME280;35714;55.708;37.478;2023-02-22T00:37:54;98123.31;;;-10.73;48.53
49825;BME280;35714;55.708;37.478;2023-02-22T00:40:22;98123.19;;;-10.71;48.62
49825;BME280;35714;55.708;37.478;2023-02-22T00:42:48;98133.91;;;-10.74;48.74
49825;BME280;35714;55.708;37.478;2023-02-22T00:45:17;98125.81;;;-10.71;48.49
49825;BME280;35714;55.708;37.478;2023-02-22T00:47:43;98130.78;;;-10.68;48.46
49825;BME280;35714;55.708;37.478;2023-02-22T00:50:10;98135.34;;;-10.60;48.42
49825;BME280;35714;55.708;37.478;2023-02-22T00:52:37;98139.38;;;-10.56;48.32
49825;BME280;35714;55.708;37.478;2023-02-22T00:55:05;98141.16;;;-10.57;48.14
49825;BME280;35714;55.708;37.478;2023-02-22T00:57:31;98131.19;;;-10.63;48.78
49825;BME280;35714;55.708;37.478;2023-02-22T01:00:04;98141.69;;;-10.63;48.35
49825;BME280;35714;55.708;37.478;2023-02-22T01:02:38;98144.13;;;-10.71;48.06
49825;BME280;35714;55.708;37.478;2023-02-22T01:05:07;98145.19;;;-10.83;48.13
49825;BME280;35714;55.708;37.478;2023-02-22T01:07:32;98137.16;;;-10.92;48.49
49825;BME280;35714;55.708;37.478;2023-02-22T01:10:00;98142.78;;;-10.96;48.42
49825;BME280;35714;55.708;37.478;2023-02-22T01:12:27;98145.88;;;-11.12;48.32
49825;BME280;35714;55.708;37.478;2023-02-22T01:14:53;98162.09;;;-11.18;48.84
49825;BME280;35714;55.708;37.478;2023-02-22T01:17:24;98160.69;;;-11.22;48.61
49825;BME280;35714;55.708;37.478;2023-02-22T01:19:51;98159.28;;;-11.27;48.76
49825;BME280;35714;55.708;37.478;2023-02-22T01:22:18;98153.81;;;-11.23;48.85
49825;BME280;35714;55.708;37.478;2023-02-22T01:24:44;98161.78;;;-11.25;48.77
49825;BME280;35714;55.708;37.478;2023-02-22T01:27:10;98170.00;;;-11.30;48.61
49825;BME280;35714;55.708;37.478;2023-02-22T01:29:36;98163.63;;;-11.37;48.94
49825;BME280;35714;55.708;37.478;2023-02-22T01:32:05;98175.56;;;-11.44;48.85
49825;BME280;35714;55.708;37.478;2023-02-22T01:34:31;98175.81;;;-11.47;49.12
49825;BME280;35714;55.708;37.478;2023-02-22T01:37:00;98177.84;;;-11.51;49.11
49825;BME280;35714;55.708;37.478;2023-02-22T01:39:26;98182.25;;;-11.51;49.08
49825;BME280;35714;55.708;37.478;2023-02-22T01:41:53;98183.81;;;-11.60;48.98
49825;BME280;35714;55.708;37.478;2023-02-22T01:46:59;98206.97;;;-11.55;49.20
49825;BME280;35714;55.708;37.478;2023-02-22T01:49:29;98207.22;;;-11.58;49.26
49825;BME280;35714;55.708;37.478;2023-02-22T01:51:58;98213.44;;;-11.59;48.78
49825;BME280;35714;55.708;37.478;2023-02-22T01:54:51;98202.25;;;-11.62;48.91
49825;BME280;35714;55.708;37.478;2023-02-22T01:57:32;98211.06;;;-11.63;48.84
49825;BME280;35714;55.708;37.478;2023-02-22T02:00:04;98214.41;;;-11.72;49.27
49825;BME280;35714;55.708;37.478;2023-02-22T02:02:47;98218.59;;;-11.81;49.09
49825;BME280;35714;55.708;37.478;2023-02-22T02:05:20;98212.78;;;-11.84;49.09
49825;BME280;35714;55.708;37.478;2023-02-22T02:07:49;98224.69;;;-11.91;48.94
49825;BME280;35714;55.708;37.478;2023-02-22T02:10:19;98220.38;;;-12.02;49.21
49825;BME280;35714;55.708;37.478;2023-02-22T02:12:47;98234.13;;;-12.00;49.42
49825;BME280;35714;55.708;37.478;2023-02-22T02:15:31;98228.31;;;-12.04;49.43
49825;BME280;35714;55.708;37.478;2023-02-22T02:18:04;98223.34;;;-12.07;49.02
49825;BME280;35714;55.708;37.478;2023-02-22T02:27:01;98245.31;;;-12.09;49.29
49825;BME280;35714;55.708;37.478;2023-02-22T02:35:23;98263.00;;;-12.47;49.47
49825;BME280;35714;55.708;37.478;2023-02-22T02:40:28;98282.22;;;-12.59;49.64
49825;BME280;35714;55.708;37.478;2023-02-22T02:48:11;98247.53;;;-12.95;50.00
49825;BME280;35714;55.708;37.478;2023-02-22T02:50:47;98260.34;;;-12.92;50.32
49825;BME280;35714;55.708;37.478;2023-02-22T02:53:18;98280.28;;;-12.91;50.69
49825;BME280;35714;55.708;37.478;2023-02-22T02:55:45;98280.28;;;-12.91;50.61
49825;BME280;35714;55.708;37.478;2023-02-22T02:58:18;98281.09;;;-12.91;50.82
49825;BME280;35714;55.708;37.478;2023-02-22T03:00:45;98281.94;;;-12.90;50.24
49825;BME280;35714;55.708;37.478;2023-02-22T03:03:42;98287.88;;;-12.88;50.33
49825;BME280;35714;55.708;37.478;2023-02-22T03:09:34;98295.00;;;-12.90;50.60
49825;BME280;35714;55.708;37.478;2023-02-22T03:15:18;98291.66;;;-12.92;50.59
49825;BME280;35714;55.708;37.478;2023-02-22T03:20:57;98300.91;;;-12.88;50.19
49825;BME280;35714;55.708;37.478;2023-02-22T03:23:33;98291.31;;;-12.88;50.04
49825;BME280;35714;55.708;37.478;2023-02-22T03:26:08;98302.09;;;-12.92;50.01
49825;BME280;35714;55.708;37.478;2023-02-22T03:28:40;98316.81;;;-12.91;50.28
49825;BME280;35714;55.708;37.478;2023-02-22T03:31:12;98304.59;;;-12.91;50.44
49825;BME280;35714;55.708;37.478;2023-02-22T03:33:46;98309.22;;;-12.94;50.67
49825;BME280;35714;55.708;37.478;2023-02-22T03:36:19;98318.31;;;-13.00;50.36
49825;BME280;35714;55.708;37.478;2023-02-22T03:38:47;98322.69;;;-13.00;50.73
49825;BME280;35714;55.708;37.478;2023-02-22T03:41:16;98320.22;;;-13.02;50.58
49825;BME280;35714;55.708;37.478;2023-02-22T03:43:48;98328.59;;;-13.10;50.65
49825;BME280;35714;55.708;37.478;2023-02-22T03:46:16;98323.38;;;-13.10;50.85
49825;BME280;35714;55.708;37.478;2023-02-22T03:48:53;98337.38;;;-13.11;50.84
49825;BME280;35714;55.708;37.478;2023-02-22T03:51:23;98339.25;;;-13.13;50.88
49825;BME280;35714;55.708;37.478;2023-02-22T03:53:54;98345.53;;;-13.15;50.59
49825;BME280;35714;55.708;37.478;2023-02-22T03:56:30;98351.22;;;-13.21;51.18
49825;BME280;35714;55.708;37.478;2023-02-22T03:59:09;98355.13;;;-13.16;51.07
49825;BME280;35714;55.708;37.478;2023-02-22T04:01:35;98343.50;;;-13.23;50.67
49825;BME280;35714;55.708;37.478;2023-02-22T04:04:01;98358.47;;;-13.14;50.53
49825;BME280;35714;55.708;37.478;2023-02-22T04:06:28;98351.81;;;-13.18;50.74
49825;BME280;35714;55.708;37.478;2023-02-22T04:08:55;98366.34;;;-13.02;50.67
49825;BME280;35714;55.708;37.478;2023-02-22T04:11:21;98368.41;;;-12.95;50.83
49825;BME280;35714;55.708;37.478;2023-02-22T04:13:48;98366.50;;;-12.93;50.84
49825;BME280;35714;55.708;37.478;2023-02-22T04:16:14;98369.38;;;-12.84;50.93
49825;BME280;35714;55.708;37.478;2023-02-22T04:18:40;98367.09;;;-12.89;50.75
49825;BME280;35714;55.708;37.478;2023-02-22T04:21:06;98373.31;;;-12.79;50.60
49825;BME280;35714;55.708;37.478;2023-02-22T04:23:40;98386.97;;;-12.75;50.22
49825;BME280;35714;55.708;37.478;2023-02-22T04:26:07;98385.16;;;-12.75;49.99
49825;BME280;35714;55.708;37.478;2023-02-22T04:28:32;98387.31;;;-12.80;50.08
49825;BME280;35714;55.708;37.478;2023-02-22T04:31:08;98393.97;;;-12.76;50.17
49825;BME280;35714;55.708;37.478;2023-02-22T04:33:34;98398.97;;;-12.73;50.63
49825;BME280;35714;55.708;37.478;2023-02-22T04:36:00;98397.06;;;-12.71;49.94
49825;BME280;35714;55.708;37.478;2023-02-22T04:38:29;98386.25;;;-12.77;50.11
49825;BME280;35714;55.708;37.478;2023-02-22T04:40:57;98397.88;;;-12.70;49.98
49825;BME280;35714;55.708;37.478;2023-02-22T04:43:23;98415.22;;;-12.69;50.18
49825;BME280;35714;55.708;37.478;2023-02-22T04:45:52;98414.41;;;-12.69;49.70
49825;BME280;35714;55.708;37.478;2023-02-22T04:48:18;98416.28;;;-12.72;49.44
49825;BME280;35714;55.708;37.478;2023-02-22T04:50:44;98402.81;;;-12.90;49.88
49825;BME280;35714;55.708;37.478;2023-02-22T04:53:12;98411.97;;;-12.84;49.55
49825;BME280;35714;55.708;37.478;2023-02-22T04:55:38;98403.63;;;-12.89;49.61
49825;BME280;35714;55.708;37.478;2023-02-22T04:58:04;98406.69;;;-12.95;49.63
49825;BME280;35714;55.708;37.478;2023-02-22T05:00:30;98419.94;;;-12.98;50.02
49825;BME280;35714;55.708;37.478;2023-02-22T05:02:59;98416.63;;;-13.00;50.11
49825;BME280;35714;55.708;37.478;2023-02-22T05:05:25;98413.53;;;-13.05;49.67
49825;BME280;35714;55.708;37.478;2023-02-22T05:07:51;98423.56;;;-13.12;49.94
49825;BME280;35714;55.708;37.478;2023-02-22T05:10:17;98420.34;;;-13.16;50.02
49825;BME280;35714;55.708;37.478;2023-02-22T05:12:43;98421.91;;;-13.13;50.25
49825;BME280;35714;55.708;37.478;2023-02-22T05:15:09;98422.72;;;-13.13;49.89
49825;BME280;35714;55.708;37.478;2023-02-22T05:17:35;98419.50;;;-13.16;49.83
49825;BME280;35714;55.708;37.478;2023-02-22T05:20:03;98435.06;;;-13.15;49.82
49825;BME280;35714;55.708;37.478;2023-02-22T05:22:29;98432.56;;;-13.16;49.79
49825;BME280;35714;55.708;37.478;2023-02-22T05:24:54;98440.06;;;-13.12;50.21
49825;BME280;35714;55.708;37.478;2023-02-22T05:27:21;98439.44;;;-13.15;50.01
49825;BME280;35714;55.708;37.478;2023-02-22T05:29:47;98438.78;;;-13.06;49.73
49825;BME280;35714;55.708;37.478;2023-02-22T05:32:13;98440.34;;;-13.03;49.74
49825;BME280;35714;55.708;37.478;2023-02-22T05:34:38;98453.16;;;-13.00;49.82
49825;BME280;35714;55.708;37.478;2023-02-22T05:37:04;98454.63;;;-12.96;49.53
49825;BME280;35714;55.708;37.478;2023-02-22T05:39:30;98458.59;;;-13.03;49.50
49825;BME280;35714;55.708;37.478;2023-02-22T05:41:56;98462.34;;;-12.95;49.45
49825;BME280;35714;55.708;37.478;2023-02-22T05:44:22;98456.91;;;-12.92;49.78
49825;BME280;35714;55.708;37.478;2023-02-22T05:46:47;98460.47;;;-12.81;49.04
49825;BME280;35714;55.708;37.478;2023-02-22T05:49:13;98471.94;;;-12.71;49.45
49825;BME280;35714;55.708;37.478;2023-02-22T05:51:39;98475.19;;;-12.56;49.06
49825;BME280;35714;55.708;37.478;2023-02-22T05:54:04;98466.47;;;-12.44;48.74
49825;BME280;35714;55.708;37.478;2023-02-22T05:56:30;98472.69;;;-12.33;48.62
49825;BME280;35714;55.708;37.478;2023-02-22T05:58:56;98471.78;;;-12.21;48.80
49825;BME280;35714;55.708;37.478;2023-02-22T06:01:23;98471.06;;;-12.12;48.00
49825;BME280;35714;55.708;37.478;2023-02-22T06:03:49;98481.69;;;-12.02;48.04
49825;BME280;35714;55.708;37.478;2023-02-22T06:06:16;98462.53;;;-12.03;47.82
49825;BME280;35714;55.708;37.478;2023-02-22T06:08:43;98474.41;;;-11.87;47.37
49825;BME280;35714;55.708;37.478;2023-02-22T06:11:09;98493.69;;;-11.77;47.18
49825;BME280;35714;55.708;37.478;2023-02-22T06:13:35;98485.97;;;-11.67;47.53
49825;BME280;35714;55.708;37.478;2023-02-22T06:16:01;98490.16;;;-11.65;46.43
49825;BME280;35714;55.708;37.478;2023-02-22T06:18:27;98493.94;;;-11.69;46.20
49825;BME280;35714;55.708;37.478;2023-02-22T06:20:56;98498.41;;;-11.82;46.25
49825;BME280;35714;55.708;37.478;2023-02-22T06:23:23;98497.72;;;-11.84;46.62
49825;BME280;35714;55.708;37.478;2023-02-22T06:25:48;98496.38;;;-11.90;46.56
49825;BME280;35714;55.708;37.478;2023-02-22T06:28:14;98491.16;;;-11.90;47.08
49825;BME280;35714;55.708;37.478;2023-02-22T06:30:40;98507.00;;;-11.80;46.64
49825;BME280;35714;55.708;37.478;2023-02-22T06:33:07;98496.53;;;-11.80;45.88
49825;BME280;35714;55.708;37.478;2023-02-22T06:35:33;98514.25;;;-11.72;46.25
49825;BME280;35714;55.708;37.478;2023-02-22T06:37:59;98519.03;;;-11.66;46.37
49825;BME280;35714;55.708;37.478;2023-02-22T06:40:24;98510.44;;;-11.57;45.98
49825;BME280;35714;55.708;37.478;2023-02-22T06:42:54;98505.72;;;-11.52;45.38
49825;BME280;35714;55.708;37.478;2023-02-22T06:45:20;98515.72;;;-11.46;45.50
49825;BME280;35714;55.708;37.478;2023-02-22T06:50:34;98512.75;;;-11.18;45.48
49825;BME280;35714;55.708;37.478;2023-02-22T06:53:00;98506.19;;;-11.13;44.87
49825;BME280;35714;55.708;37.478;2023-02-22T06:55:27;98513.44;;;-10.94;45.00
49825;BME280;35714;55.708;37.478;2023-02-22T06:57:54;98517.69;;;-10.70;44.89
49825;BME280;35714;55.708;37.478;2023-02-22T07:00:21;98517.34;;;-10.44;43.86
49825;BME280;35714;55.708;37.478;2023-02-22T07:02:49;98527.63;;;-10.31;43.44
49825;BME280;35714;55.708;37.478;2023-02-22T07:05:17;98531.53;;;-10.36;43.06
49825;BME280;35714;55.708;37.478;2023-02-22T07:07:43;98531.31;;;-10.23;43.36
49825;BME280;35714;55.708;37.478;2023-02-22T07:10:18;98532.44;;;-10.04;42.82
49825;BME280;35714;55.708;37.478;2023-02-22T07:12:44;98529.94;;;-9.85;42.96
49825;BME280;35714;55.708;37.478;2023-02-22T07:15:09;98537.81;;;-9.43;42.67
49825;BME280;35714;55.708;37.478;2023-02-22T07:17:35;98541.16;;;-9.00;42.65
49825;BME280;35714;55.708;37.478;2023-02-22T07:20:01;98542.78;;;-8.58;41.83
49825;BME280;35714;55.708;37.478;2023-02-22T07:22:26;98539.09;;;-8.07;41.13
49825;BME280;35714;55.708;37.478;2023-02-22T07:24:52;98539.47;;;-7.43;40.94
49825;BME280;35714;55.708;37.478;2023-02-22T07:27:17;98544.63;;;-6.76;39.85
49825;BME280;35714;55.708;37.478;2023-02-22T07:29:43;98541.59;;;-6.08;38.96
49825;BME280;35714;55.708;37.478;2023-02-22T07:32:09;98550.09;;;-5.26;37.86
49825;BME280;35714;55.708;37.478;2023-02-22T07:34:34;98545.59;;;-4.73;35.50
49825;BME280;35714;55.708;37.478;2023-02-22T07:37:00;98541.41;;;-4.49;34.93
49825;BME280;35714;55.708;37.478;2023-02-22T07:39:26;98550.06;;;-4.30;34.70
49825;BME280;35714;55.708;37.478;2023-02-22T07:41:51;98565.63;;;-4.11;33.54
49825;BME280;35714;55.708;37.478;2023-02-22T07:44:21;98565.47;;;-4.09;33.62
49825;BME280;35714;55.708;37.478;2023-02-22T07:46:47;98577.28;;;-3.87;32.53
49825;BME280;35714;55.708;37.478;2023-02-22T07:49:14;98564.66;;;-4.02;32.25
49825;BME280;35714;55.708;37.478;2023-02-22T07:51:39;98574.94;;;-3.82;33.11
49825;BME280;35714;55.708;37.478;2023-02-22T07:54:05;98574.31;;;-3.43;31.98
49825;BME280;35714;55.708;37.478;2023-02-22T07:56:31;98580.78;;;-3.29;31.14
49825;BME280;35714;55.708;37.478;2023-02-22T07:58:56;98589.69;;;-3.30;30.45
49825;BME280;35714;55.708;37.478;2023-02-22T08:01:22;98588.72;;;-3.37;31.19
49825;BME280;35714;55.708;37.478;2023-02-22T08:03:49;98584.91;;;-3.27;30.56
49825;BME280;35714;55.708;37.478;2023-02-22T08:06:14;98579.28;;;-3.40;30.27
49825;BME280;35714;55.708;37.478;2023-02-22T08:08:40;98574.81;;;-3.39;30.97
49825;BME280;35714;55.708;37.478;2023-02-22T08:11:07;98580.53;;;-2.86;31.62
49825;BME280;35714;55.708;37.478;2023-02-22T08:13:33;98561.47;;;-2.11;31.20
49825;BME280;35714;55.708;37.478;2023-02-22T08:15:58;98583.84;;;-1.13;29.89
49825;BME280;35714;55.708;37.478;2023-02-22T08:18:24;98583.53;;;-0.50;29.29
49825;BME280;35714;55.708;37.478;2023-02-22T08:20:51;98581.28;;;0.20;28.15
49825;BME280;35714;55.708;37.478;2023-02-22T08:23:20;98591.31;;;0.61;26.84
49825;BME280;35714;55.708;37.478;2023-02-22T08:25:46;98587.00;;;0.82;25.21
49825;BME280;35714;55.708;37.478;2023-02-22T08:28:14;98590.69;;;0.38;26.02
49825;BME280;35714;55.708;37.478;2023-02-22T08:30:41;98581.31;;;0.42;26.76
49825;BME280;35714;55.708;37.478;2023-02-22T08:33:11;98597.00;;;1.01;26.47
49825;BME280;35714;55.708;37.478;2023-02-22T08:35:38;98592.66;;;1.29;25.30
49825;BME280;35714;55.708;37.478;2023-02-22T08:38:06;98605.78;;;1.23;25.07
49825;BME280;35714;55.708;37.478;2023-02-22T08:40:34;98593.56;;;1.36;24.79
49825;BME280;35714;55.708;37.478;2023-02-22T08:43:00;98598.75;;;1.51;24.90
49825;BME280;35714;55.708;37.478;2023-02-22T08:45:26;98605.22;;;1.63;24.66
49825;BME280;35714;55.708;37.478;2023-02-22T08:47:52;98601.63;;;1.84;24.58
49825;BME280;35714;55.708;37.478;2023-02-22T08:50:35;98602.56;;;2.25;23.77
49825;BME280;35714;55.708;37.478;2023-02-22T08:53:03;98608.88;;;2.72;24.18
49825;BME280;35714;55.708;37.478;2023-02-22T08:55:32;98613.38;;;3.25;23.44
49825;BME280;35714;55.708;37.478;2023-02-22T08:58:02;98614.13;;;3.72;22.20
49825;BME280;35714;55.708;37.478;2023-02-22T09:00:30;98618.00;;;3.96;22.44
49825;BME280;35714;55.708;37.478;2023-02-22T09:03:03;98617.78;;;3.91;22.23
49825;BME280;35714;55.708;37.478;2023-02-22T09:05:29;98616.94;;;3.97;21.86
49825;BME280;35714;55.708;37.478;2023-02-22T09:07:55;98627.72;;;3.84;21.79
49825;BME280;35714;55.708;37.478;2023-02-22T09:10:24;98624.88;;;3.66;22.04
49825;BME280;35714;55.708;37.478;2023-02-22T09:12:53;98629.00;;;3.61;21.87
49825;BME280;35714;55.708;37.478;2023-02-22T09:15:23;98626.97;;;3.43;21.80
49825;BME280;35714;55.708;37.478;2023-02-22T09:17:50;98628.22;;;3.41;21.99
49825;BME280;35714;55.708;37.478;2023-02-22T09:20:18;98631.91;;;3.67;21.93
49825;BME280;35714;55.708;37.478;2023-02-22T09:22:45;98626.81;;;4.04;21.38
49825;BME280;35714;55.708;37.478;2023-02-22T09:25:11;98635.59;;;4.31;21.20
49825;BME280;35714;55.708;37.478;2023-02-22T09:27:38;98633.63;;;4.45;20.98
49825;BME280;35714;55.708;37.478;2023-02-22T09:30:06;98637.13;;;4.52;20.66
49825;BME280;35714;55.708;37.478;2023-02-22T09:32:36;98634.53;;;4.39;20.39
49825;BME280;35714;55.708;37.478;2023-02-22T09:35:01;98625.31;;;4.14;20.83
49825;BME280;35714;55.708;37.478;2023-02-22T09:37:28;98644.16;;;4.08;20.82
49825;BME280;35714;55.708;37.478;2023-02-22T09:39:53;98640.00;;;4.12;20.84
49825;BME280;35714;55.708;37.478;2023-02-22T09:42:33;98642.03;;;4.23;20.48
49825;BME280;35714;55.708;37.478;2023-02-22T09:45:22;98649.44;;;4.21;20.98
49825;BME280;35714;55.708;37.478;2023-02-22T09:47:56;98640.75;;;4.32;20.50
49825;BME280;35714;55.708;37.478;2023-02-22T09:50:33;98653.78;;;4.67;19.81
49825;BME280;35714;55.708;37.478;2023-02-22T09:55:42;98651.25;;;4.73;20.00
49825;BME280;35714;55.708;37.478;2023-02-22T09:58:31;98656.69;;;5.23;19.92
49825;BME280;35714;55.708;37.478;2023-02-22T10:06:56;98663.72;;;6.30;19.16
49825;BME280;35714;55.708;37.478;2023-02-22T10:09:26;98651.72;;;6.44;18.69
49825;BME280;35714;55.708;37.478;2023-02-22T10:11:58;98662.81;;;6.36;18.36
49825;BME280;35714;55.708;37.478;2023-02-22T10:22:52;98662.34;;;6.69;18.52
49825;BME280;35714;55.708;37.478;2023-02-22T10:25:25;98652.00;;;6.85;18.13
49825;BME280;35714;55.708;37.478;2023-02-22T10:30:49;98667.97;;;7.64;17.77
49825;BME280;35714;55.708;37.478;2023-02-22T10:33:23;98669.81;;;7.40;17.57
49825;BME280;35714;55.708;37.478;2023-02-22T10:35:53;98670.16;;;7.32;17.63
49825;BME280;35714;55.708;37.478;2023-02-22T10:43:29;98657.03;;;6.51;18.36
49825;BME280;35714;55.708;37.478;2023-02-22T10:46:03;98655.56;;;6.67;18.16
49825;BME280;35714;55.708;37.478;2023-02-22T10:48:38;98666.69;;;7.01;17.99
49825;BME280;35714;55.708;37.478;2023-02-22T10:51:07;98664.19;;;7.30;17.58
49825;BME280;35714;55.708;37.478;2023-02-22T10:53:34;98676.00;;;7.17;17.68
49825;BME280;35714;55.708;37.478;2023-02-22T10:56:23;98678.25;;;7.32;17.50
49825;BME280;35714;55.708;37.478;2023-02-22T10:59:02;98676.47;;;7.14;17.61
49825;BME280;35714;55.708;37.478;2023-02-22T11:04:17;98690.41;;;6.80;18.16
49825;BME280;35714;55.708;37.478;2023-02-22T11:06:46;98693.84;;;6.57;17.57
49825;BME280;35714;55.708;37.478;2023-02-22T11:09:17;98695.66;;;6.45;18.08
49825;BME280;35714;55.708;37.478;2023-02-22T11:11:47;98690.84;;;6.77;18.02
49825;BME280;35714;55.708;37.478;2023-02-22T11:14:28;98698.09;;;7.49;17.31
49825;BME280;35714;55.708;37.478;2023-02-22T11:16:56;98700.56;;;7.63;17.00
49825;BME280;35714;55.708;37.478;2023-02-22T11:19:30;98690.69;;;7.33;16.92
49825;BME280;35714;55.708;37.478;2023-02-22T11:24:54;98695.88;;;6.43;17.14
49825;BME280;35714;55.708;37.478;2023-02-22T11:27:39;98699.91;;;6.34;17.86
49825;BME280;35714;55.708;37.478;2023-02-22T11:30:41;98705.56;;;6.63;18.03
49825;BME280;35714;55.708;37.478;2023-02-22T11:33:20;98717.97;;;6.82;17.16
49825;BME280;35714;55.708;37.478;2023-02-22T11:35:53;98715.19;;;7.01;17.35
49825;BME280;35714;55.708;37.478;2023-02-22T11:38:23;98717.28;;;7.29;17.14
49825;BME280;35714;55.708;37.478;2023-02-22T11:41:16;98713.97;;;7.15;17.26
49825;BME280;35714;55.708;37.478;2023-02-22T11:43:46;98715.00;;;6.54;17.22
49825;BME280;35714;55.708;37.478;2023-02-22T11:46:17;98726.03;;;5.39;17.86
49825;BME280;35714;55.708;37.478;2023-02-22T11:49:04;98720.53;;;4.57;18.37
49825;BME280;35714;55.708;37.478;2023-02-22T12:03:16;98739.25;;;2.92;20.52
49825;BME280;35714;55.708;37.478;2023-02-22T12:08:36;98738.38;;;2.78;20.56
49825;BME280;35714;55.708;37.478;2023-02-22T12:16:25;98749.75;;;4.79;19.37
49825;BME280;35714;55.708;37.478;2023-02-22T12:21:46;98763.00;;;5.19;19.06
49825;BME280;35714;55.708;37.478;2023-02-22T12:24:20;98754.53;;;5.47;18.98
49825;BME280;35714;55.708;37.478;2023-02-22T12:27:01;98764.28;;;5.92;18.80
49825;BME280;35714;55.708;37.478;2023-02-22T12:32:12;98777.44;;;5.82;18.32
49825;BME280;35714;55.708;37.478;2023-02-22T12:34:56;98771.53;;;5.91;18.12
49825;BME280;35714;55.708;37.478;2023-02-22T12:43:21;98780.47;;;5.35;18.71
49825;BME280;35714;55.708;37.478;2023-02-22T12:46:12;98786.69;;;4.97;19.05
49825;BME280;35714;55.708;37.478;2023-02-22T12:49:11;98795.97;;;4.36;19.46
49825;BME280;35714;55.708;37.478;2023-02-22T12:51:43;98783.84;;;3.59;19.77
49825;BME280;35714;55.708;37.478;2023-02-22T12:54:22;98801.28;;;3.02;20.42
49825;BME280;35714;55.708;37.478;2023-02-22T12:57:04;98801.34;;;2.67;20.89
49825;BME280;35714;55.708;37.478;2023-02-22T12:59:39;98798.31;;;2.00;21.25
49825;BME280;35714;55.708;37.478;2023-02-22T13:02:25;98814.41;;;1.14;21.96
49825;BME280;35714;55.708;37.478;2023-02-22T13:04:53;98809.91;;;0.48;22.78
49825;BME280;35714;55.708;37.478;2023-02-22T13:07:35;98813.75;;;0.01;23.29
49825;BME280;35714;55.708;37.478;2023-02-22T13:10:05;98813.19;;;-0.10;24.02
49825;BME280;35714;55.708;37.478;2023-02-22T13:12:38;98817.78;;;-0.04;23.89
49825;BME280;35714;55.708;37.478;2023-02-22T13:18:16;98815.94;;;-0.41;24.71
49825;BME280;35714;55.708;37.478;2023-02-22T13:20:56;98822.25;;;-0.57;24.86
49825;BME280;35714;55.708;37.478;2023-02-22T13:23:32;98826.41;;;-0.55;24.80
49825;BME280;35714;55.708;37.478;2023-02-22T13:29:11;98844.31;;;0.43;24.34
49825;BME280;35714;55.708;37.478;2023-02-22T13:38:00;98840.78;;;0.72;23.89
49825;BME280;35714;55.708;37.478;2023-02-22T13:51:41;98846.69;;;0.67;24.42
49825;BME280;35714;55.708;37.478;2023-02-22T13:56:59;98847.31;;;1.21;23.91
49825;BME280;35714;55.708;37.478;2023-02-22T13:59:28;98858.28;;;1.26;23.87
49825;BME280;35714;55.708;37.478;2023-02-22T14:01:56;98852.81;;;1.34;23.62
49825;BME280;35714;55.708;37.478;2023-02-22T14:12:48;98865.88;;;0.93;24.01
49825;BME280;35714;55.708;37.478;2023-02-22T14:15:16;98855.88;;;0.50;24.24
49825;BME280;35714;55.708;37.478;2023-02-22T14:17:47;98864.19;;;0.25;24.52
49825;BME280;35714;55.708;37.478;2023-02-22T14:22:43;98863.06;;;-0.42;25.16
49825;BME280;35714;55.708;37.478;2023-02-22T14:25:33;98870.31;;;-0.82;25.73
49825;BME280;35714;55.708;37.478;2023-02-22T14:27:59;98871.84;;;-1.19;25.85
49825;BME280;35714;55.708;37.478;2023-02-22T14:30:29;98853.75;;;-1.79;26.18
49825;BME280;35714;55.708;37.478;2023-02-22T14:32:56;98863.09;;;-2.49;27.14
49825;BME280;35714;55.708;37.478;2023-02-22T14:35:22;98859.13;;;-3.21;28.12
49825;BME280;35714;55.708;37.478;2023-02-22T14:37:54;98867.97;;;-3.81;29.24
49825;BME280;35714;55.708;37.478;2023-02-22T14:40:33;98872.78;;;-4.47;30.18
49825;BME280;35714;55.708;37.478;2023-02-22T14:43:17;98871.53;;;-5.07;31.44
49825;BME280;35714;55.708;37.478;2023-02-22T14:45:54;98877.94;;;-5.55;32.07
49825;BME280;35714;55.708;37.478;2023-02-22T14:51:36;98874.81;;;-6.25;32.78
49825;BME280;35714;55.708;37.478;2023-02-22T14:59:51;98893.97;;;-6.72;34.63
49825;BME280;35714;55.708;37.478;2023-02-22T15:02:21;98893.38;;;-6.95;35.27
49825;BME280;35714;55.708;37.478;2023-02-22T15:04:54;98909.72;;;-7.11;35.42
49825;BME280;35714;55.708;37.478;2023-02-22T15:07:26;98904.69;;;-7.24;35.68
49825;BME280;35714;55.708;37.478;2023-02-22T15:15:21;98915.38;;;-7.56;37.04
49825;BME280;35714;55.708;37.478;2023-02-22T15:17:52;98925.56;;;-7.73;37.48
49825;BME280;35714;55.708;37.478;2023-02-22T15:20:19;98914.66;;;-7.89;38.21
49825;BME280;35714;55.708;37.478;2023-02-22T15:22:45;98916.41;;;-8.00;38.21
49825;BME280;35714;55.708;37.478;2023-02-22T15:25:12;98925.50;;;-8.04;39.24
49825;BME280;35714;55.708;37.478;2023-02-22T15:27:40;98895.28;;;-8.30;38.82
49825;BME280;35714;55.708;37.478;2023-02-22T15:30:23;98919.75;;;-8.19;39.10